Pagina principale
METAR-TAF:

METAR-TAF

Aeroporti :

Épinal, Francia

latitudine: 48-19-31N, longitudine: 6-04-00E, altezza: 330 m

Osservazione

Il bollettino è stato emesso 21 minuti fa, alle 23:00 UTC
Vento 2 kt da nord-ovest
Temperature 13°C
Umidità 82%
Pressione 1021 hPa
Visibilità 10 km o più
nessuna nube inferiore a 1500 m e nessun cumulonembo

METAR: LFSG 162300Z AUTO 32002KT CAVOK 13/10 Q1021

Ora: 01:21 (23:21 UTC)


TAF: mancante

Osservazioni e previsioni meteorologiche di più di 4000 aeroporti (messaggi METAR e TAF).

Le stazioni disponibili sono rappresentate dai dischi gialli e rossi sulla carta.

Puntare il mouse per vedere il nome della stazione.

Clicca sopra per visualizzare le osservazioni e previsioni meteorologiche.

Per cambiare la mappa : fare clic sui pulsanti verdi con una croce nera per ingrandire, il pulsante verde con un trattino per diminuire, o sulla freccia verde per le mappe adiacenti.


METAR-TAF: